West Bergholt, United Kingdom
Current Conditions -  °F | °C
As of 3:50 PM on Sunday 23 Nov 2014 (Local Time) from EGUW Reporting Station
Moderate Rain Moderate Rain  
Wind Chill: 36°   Ceiling: 3800
Heat Index: 43°   Visibility: 4mi
Dew Point: 43°   Wind: 14mph
Humidity: 100%   Direction: 330°NNW
Pressure: 30"   Gusts: NA
Location:  51.91°N, 0.85°E
Report Text: EGUW 231550Z 33012KT 7000 RA FEW007 SCT023 BKN038 06/06 Q1016 WHT BECMG 9999 -RA FEW022 BLU
Loading
Personal Weather Stations






























Interactive Weather Map New forecast layout! Learn more

10-Day Weather Forecast

Advertisements
Track Severe Weather on mobile